Flight Track Log - Related Links

Times and Time Zones

All times are in EDT time to prevent confusion due to time zone crossing. See the XOJ552 flight status page for this flight to view local times or setup timezone preferences in your user account.

Time Position Orientation Groundspeed Altitude Reporting Facility
EDT Latitude Longitude Course Direction KTS MPH feet Rate Location/Type
Tue 09:12:25 AM 40.7500 -74.4167 72° East 191 220 2,100  Level New York TRACON
Tue 09:13:25 AM 40.7667 -74.3500 72° East 252 290 4,300 3,000 Climbing New York TRACON
Tue 09:14:25 AM 40.8333 -74.3333 11° North 280 322 8,100 3,769 Climbing New York TRACON
Tue 09:15:26 AM 40.8667 -74.4000 303° West 255 293 11,900 2,580 Climbing New York TRACON
Tue 09:17:52 AM 40.8806 -74.6683 274° West 314 361 17,000 2,126 Climbing New York Center
Tue 09:18:52 AM 40.8914 -74.7842 277° West 319 367 19,200 2,650 Climbing New York Center
Tue 09:19:52 AM 40.8997 -74.9000 275° West 319 367 22,300 3,000 Climbing New York Center
Tue 09:20:52 AM 40.9086 -75.0075 276° West 314 361 25,200 2,600 Climbing New York Center
Tue 09:21:52 AM 40.9147 -75.1233 274° West 314 361 27,500 1,950 Climbing New York Center
Tue 09:22:52 AM 40.9022 -75.2350 262° West 314 361 29,100 1,600 Climbing New York Center
Tue 09:23:52 AM 40.8769 -75.3514 254° West 319 367 30,700 1,400 Climbing New York Center
Tue 09:24:52 AM 40.8514 -75.4703 254° West 330 380 31,900 1,050 Climbing New York Center
Tue 09:25:52 AM 40.8214 -75.5944 252° West 340 391 32,800 1,100 Climbing New York Center
Tue 09:26:52 AM 40.7914 -75.7158 252° West 351 404 34,100 1,200 Climbing New York Center
Tue 09:27:52 AM 40.7611 -75.8422 252° West 357 411 35,200 950 Climbing New York Center
Tue 09:28:52 AM 40.7286 -75.9686 251° West 357 411 36,000 750 Climbing New York Center
Tue 09:29:52 AM 40.7053 -76.0708 253° West 362 417 36,700 900 Climbing New York Center
Tue 09:30:52 AM 40.6717 -76.2106 252° West 362 417 37,800 950 Climbing New York Center
Tue 09:31:52 AM 40.6781 -76.3453 274° West 362 417 38,600 800 Climbing New York Center
Tue 09:32:52 AM 40.6967 -76.4781 281° West 362 417 39,400 650 Climbing New York Center
Tue 09:33:52 AM 40.7175 -76.6086 282° West 368 423 39,900 450 Climbing New York Center
Tue 09:34:52 AM 40.7378 -76.7419 281° West 374 430 40,300 450 Climbing New York Center
Tue 09:35:52 AM 40.7578 -76.8833 281° West 374 430 40,800 600 Climbing New York Center
Tue 09:36:52 AM 40.7778 -77.0167 281° West 379 436 41,500 750 Climbing New York Center
Tue 09:37:52 AM 40.7981 -77.1475 282° West 374 430 42,300 441 Climbing New York Center
Tue 09:40:16 AM 40.8439 -77.4600 281° West 364 419 43,000 204 Climbing Cleveland Center
Tue 09:41:18 AM 40.8625 -77.5942 280° West 374 430 43,000  Level Cleveland Center
Tue 09:42:20 AM 40.8808 -77.7272 280° West 368 423 43,000  Level Cleveland Center
Tue 09:43:22 AM 40.9033 -77.8908 280° West 376 433 43,000  Level Cleveland Center
Tue 09:44:24 AM 40.9211 -78.0272 280° West 379 436 43,000 -48 Level Cleveland Center
Tue 09:45:26 AM 40.9386 -78.1672 279° West 386 444 42,900  Descending Cleveland Center
Tue 09:46:28 AM 40.9564 -78.3131 279° West 379 436 43,000 48 Climbing Cleveland Center
Tue 09:47:30 AM 40.9731 -78.4514 279° West 381 438 43,000  Level Cleveland Center
Tue 09:48:32 AM 40.9922 -78.5942 280° West 392 451 43,000  Level Cleveland Center
Tue 09:49:34 AM 41.0100 -78.7347 280° West 422 486 43,000  Level Cleveland Center
Tue 09:50:36 AM 41.0258 -78.8742 279° West 400 460 43,000  Level Cleveland Center
Tue 09:51:38 AM 41.0400 -79.0389 277° West 383 441 43,000  Level Cleveland Center
Tue 09:52:40 AM 41.0575 -79.1811 279° West 389 448 43,000  Level Cleveland Center
Tue 09:53:42 AM 41.0744 -79.3269 279° West 398 458 43,000  Level Cleveland Center
Tue 09:54:44 AM 41.0906 -79.4722 278° West 401 461 43,000  Level Cleveland Center
Tue 09:55:46 AM 41.1064 -79.6178 278° West 401 461 43,000  Level Cleveland Center
Tue 09:56:47 AM 41.1228 -79.7628 279° West 401 461 43,000  Level Cleveland Center
Tue 09:57:49 AM 41.1425 -79.9356 279° West 398 458 43,000  Level Cleveland Center
Tue 09:58:51 AM 41.1572 -80.0831 278° West 404 465 43,000  Level Cleveland Center
Tue 09:59:53 AM 41.1725 -80.2292 278° West 404 465 43,000  Level Cleveland Center
Tue 10:00:55 AM 41.1883 -80.3800 278° West 400 460 43,000  Level Cleveland Center
Tue 10:01:57 AM 41.2031 -80.5258 278° West 396 456 43,000  Level Cleveland Center
Tue 10:02:59 AM 41.2186 -80.6742 278° West 401 461 43,000  Level Cleveland Center
Tue 10:04:01 AM 41.2325 -80.8200 277° West 398 458 43,000  Level Cleveland Center
Tue 10:05:02 AM 41.2492 -80.9911 277° West 397 457 43,000  Level Cleveland Center
Tue 10:06:04 AM 41.2639 -81.1386 278° West 399 459 43,000  Level Cleveland Center
Tue 10:07:06 AM 41.2781 -81.2856 277° West 398 458 43,000  Level Cleveland Center
Tue 10:08:08 AM 41.2900 -81.4181 277° West 399 459 43,000  Level Cleveland Center
Tue 10:09:10 AM 41.3067 -81.5914 277° West 397 457 43,000  Level Cleveland Center
Tue 10:10:12 AM 41.3203 -81.7364 277° West 396 456 43,000  Level Cleveland Center
Tue 10:11:14 AM 41.3331 -81.8811 277° West 396 456 43,000  Level Cleveland Center
Tue 10:12:15 AM 41.3456 -82.0244 277° West 393 452 43,000  Level Cleveland Center
Tue 10:13:17 AM 41.3586 -82.1750 277° West 391 450 43,000  Level Cleveland Center
Tue 10:14:19 AM 41.3650 -82.3219 273° West 394 453 43,000  Level Cleveland Center
Tue 10:15:21 AM 41.3722 -82.4678 274° West 393 452 43,000  Level Cleveland Center
Tue 10:16:23 AM 41.3786 -82.6147 273° West 394 453 43,000  Level Cleveland Center
Tue 10:17:25 AM 41.3853 -82.7856 273° West 394 453 43,000  Level Cleveland Center
Tue 10:18:27 AM 41.3914 -82.9333 273° West 396 456 43,000  Level Cleveland Center
Tue 10:19:29 AM 41.3981 -83.0800 274° West 395 455 43,000  Level Cleveland Center
Tue 10:20:31 AM 41.4033 -83.2278 273° West 395 455 43,000  Level Cleveland Center
Tue 10:21:33 AM 41.4083 -83.3756 273° West 396 456 43,000  Level Cleveland Center
Tue 10:22:35 AM 41.4142 -83.5236 273° West 397 457 43,000  Level Cleveland Center
Tue 10:23:37 AM 41.4192 -83.6650 273° West 396 456 43,000  Level Cleveland Center
Tue 10:24:39 AM 41.4256 -83.8403 273° West 397 457 43,000  Level Cleveland Center
Tue 10:25:41 AM 41.4303 -83.9867 273° West 396 456 43,000  Level Cleveland Center
Tue 10:26:43 AM 41.4344 -84.1350 272° West 401 461 43,000  Level Cleveland Center
Tue 10:27:35 AM 41.4364 -84.2558 271° West 403 464 43,000  Level Chicago Center
Tue 10:28:37 AM 41.4411 -84.4031 272° West 400 460 43,000  Level Chicago Center
Tue 10:29:39 AM 41.4444 -84.5828 271° West 405 466 43,000  Level Chicago Center
Tue 10:30:41 AM 41.4486 -84.7333 272° West 402 463 43,000  Level Chicago Center
Tue 10:31:43 AM 41.4525 -84.8806 272° West 404 465 43,000  Level Chicago Center
Tue 10:32:45 AM 41.4553 -85.0317 271° West 406 467 43,000  Level Chicago Center
Tue 10:33:48 AM 41.4578 -85.1811 271° West 404 465 43,000  Level Chicago Center
Tue 10:34:50 AM 41.4614 -85.3328 272° West 404 465 43,000  Level Chicago Center
Tue 10:35:52 AM 41.4639 -85.4839 271° West 402 463 43,000  Level Chicago Center
Tue 10:36:54 AM 41.4658 -85.6356 271° West 402 463 43,000  Level Chicago Center
Tue 10:37:56 AM 41.4689 -85.8139 271° West 400 460 43,000  Level Chicago Center
Tue 10:38:58 AM 41.4703 -85.9631 271° West 401 461 43,000  Level Chicago Center
Tue 10:40:00 AM 41.4722 -86.1119 271° West 402 463 43,000  Level Chicago Center
Tue 10:41:02 AM 41.4736 -86.2625 271° West 406 467 43,000  Level Chicago Center
Tue 10:42:04 AM 41.4767 -86.4103 272° West 402 463 43,000  Level Chicago Center
Tue 10:43:06 AM 41.4764 -86.5583 270° West 400 460 43,000  Level Chicago Center
Tue 10:44:09 AM 41.4783 -86.7147 271° West 400 460 43,000  Level Chicago Center
Tue 10:45:11 AM 41.4792 -86.8936 270° West 402 463 43,000  Level Chicago Center
Tue 10:46:13 AM 41.4794 -87.0411 270° West 401 461 43,000  Level Chicago Center
Tue 10:47:15 AM 41.4808 -87.1881 271° West 398 458 43,000  Level Chicago Center
Tue 10:48:17 AM 41.4803 -87.3344 270° West 398 458 43,000  Level Chicago Center
Tue 10:49:19 AM 41.4814 -87.4797 271° West 396 456 43,000  Level Chicago Center
Tue 10:50:21 AM 41.4811 -87.6253 270° West 396 456 43,000  Level Chicago Center
Tue 10:51:23 AM 41.4806 -87.7989 270° West 395 455 43,000  Level Chicago Center
Tue 10:52:25 AM 41.4792 -87.9406 269° West 397 457 43,000  Level Chicago Center
Tue 10:53:27 AM 41.4811 -88.0931 271° West 399 459 43,000  Level Chicago Center
Tue 10:54:29 AM 41.4794 -88.2561 269° West 396 456 43,000  Level Chicago Center
Tue 10:55:31 AM 41.4775 -88.4028 269° West 399 459 43,000  Level Chicago Center
Tue 10:56:33 AM 41.4764 -88.5506 269° West 401 461 43,000  Level Chicago Center
Tue 10:57:35 AM 41.4753 -88.6969 269° West 398 458 43,000  Level Chicago Center
Tue 10:58:37 AM 41.4728 -88.8456 269° West 401 461 43,000  Level Chicago Center
Tue 10:59:38 AM 41.4717 -88.9950 269° West 404 465 43,000  Level Chicago Center
Tue 11:00:40 AM 41.4686 -89.1750 269° West 407 468 43,000  Level Chicago Center
Tue 11:01:42 AM 41.4669 -89.3111 269° West 409 471 43,000  Level Chicago Center
Tue 11:02:44 AM 41.4644 -89.4642 269° West 413 475 43,000  Level Chicago Center
Tue 11:03:46 AM 41.4619 -89.6461 269° West 412 474 43,000  Level Chicago Center
Tue 11:04:48 AM 41.4592 -89.7994 269° West 414 476 43,000  Level Chicago Center
Tue 11:05:50 AM 41.4550 -89.9533 268° West 417 480 43,000  Level Chicago Center
Tue 11:06:52 AM 41.4522 -90.1069 269° West 418 481 43,000  Level Chicago Center
Tue 11:07:54 AM 41.4489 -90.2594 268° West 415 478 43,000  Level Chicago Center
Tue 11:08:56 AM 41.4458 -90.4136 269° West 416 479 43,000  Level Chicago Center
Tue 11:09:58 AM 41.4411 -90.5986 268° West 418 481 43,000  Level Chicago Center
Tue 11:11:00 AM 41.4350 -90.7578 267° West 427 491 43,000  Level Chicago Center
Tue 11:12:02 AM 41.4303 -90.9114 268° West 420 483 43,000  Level Chicago Center
Tue 11:13:04 AM 41.4253 -91.0667 268° West 419 482 43,000 145 Level Chicago Center
Tue 11:14:06 AM 41.4206 -91.2214 268° West 419 482 43,300 290 Climbing Chicago Center
Tue 11:15:08 AM 41.4161 -91.3864 268° West 416 479 43,600 293 Climbing Chicago Center
Tue 11:16:09 AM 41.4103 -91.5375 267° West 412 474 43,900 293 Climbing Chicago Center
Tue 11:17:11 AM 41.4047 -91.6889 267° West 411 473 44,200 290 Climbing Chicago Center
Tue 11:18:13 AM 41.3989 -91.8386 267° West 407 468 44,500 290 Climbing Chicago Center
Tue 11:19:15 AM 41.3919 -92.0172 267° West 405 466 44,800 242 Climbing Chicago Center
Tue 11:20:17 AM 41.3858 -92.1653 267° West 402 463 45,000 98 Climbing Chicago Center
Tue 11:21:18 AM 41.3806 -92.3147 267° West 405 466 45,000  Level Chicago Center
Tue 11:22:20 AM 41.3728 -92.4761 266° West 408 470 45,000  Level Chicago Center
Tue 11:23:22 AM 41.3653 -92.6267 266° West 412 474 45,000  Level Chicago Center
Tue 11:24:24 AM 41.3592 -92.7775 267° West 414 476 45,000  Level Chicago Center
Tue 11:25:26 AM 41.3525 -92.9308 267° West 417 480 45,000  Level Chicago Center
Tue 11:26:04 AM 41.3464 -93.0558 266° West 420 483 45,000  Level Minneapolis Center
Tue 11:27:06 AM 41.3392 -93.2047 266° West 414 476 45,000  Level Minneapolis Center
Tue 11:28:08 AM 41.3308 -93.3586 266° West 417 480 45,000  Level Minneapolis Center
Tue 11:29:10 AM 41.3225 -93.5094 266° West 415 478 45,000  Level Minneapolis Center
Tue 11:30:12 AM 41.3169 -93.6558 267° West 406 467 45,000  Level Minneapolis Center
Tue 11:31:14 AM 41.3069 -93.8383 266° West 412 474 45,000  Level Minneapolis Center
Tue 11:32:16 AM 41.2953 -93.9936 264° West 419 482 45,000  Level Minneapolis Center
Tue 11:33:18 AM 41.2856 -94.1464 265° West 420 483 45,000  Level Minneapolis Center
Tue 11:34:20 AM 41.2817 -94.2944 268° West 411 473 45,000  Level Minneapolis Center
Tue 11:35:22 AM 41.2719 -94.4483 265° West 415 478 45,000  Level Minneapolis Center
Tue 11:36:24 AM 41.2594 -94.6336 265° West 419 482 45,000  Level Minneapolis Center
Tue 11:37:26 AM 41.2506 -94.7889 266° West 422 486 45,000  Level Minneapolis Center
Tue 11:38:28 AM 41.2403 -94.9425 265° West 419 482 45,000  Level Minneapolis Center
Tue 11:39:30 AM 41.2297 -95.0983 265° West 422 486 45,000  Level Minneapolis Center
Tue 11:40:32 AM 41.2192 -95.2544 265° West 424 488 45,000  Level Minneapolis Center
Tue 11:41:34 AM 41.2075 -95.4117 264° West 427 491 45,000  Level Minneapolis Center
Tue 11:42:36 AM 41.1956 -95.5692 264° West 428 493 45,000  Level Minneapolis Center
Tue 11:43:38 AM 41.1842 -95.7403 265° West 430 495 45,000  Level Minneapolis Center
Tue 11:44:40 AM 41.1725 -95.8992 264° West 430 495 45,000  Level Minneapolis Center
Tue 11:45:42 AM 41.1589 -96.0881 265° West 430 495 45,000  Level Minneapolis Center
Tue 11:46:44 AM 41.1469 -96.2469 264° West 431 496 45,000  Level Minneapolis Center
Tue 11:47:46 AM 41.1347 -96.4028 264° West 435 501 45,000  Level Minneapolis Center
Tue 11:48:48 AM 41.1231 -96.5622 265° West 434 499 45,000  Level Minneapolis Center
Tue 11:49:50 AM 41.1147 -96.7219 266° West 434 499 45,000  Level Minneapolis Center
Tue 11:50:52 AM 41.1064 -96.8817 266° West 435 501 45,000  Level Minneapolis Center
Tue 11:51:54 AM 41.0978 -97.0392 266° West 431 496 45,000  Level Minneapolis Center
Tue 11:52:56 AM 41.0869 -97.2297 266° West 431 496 45,000  Level Minneapolis Center
Tue 11:53:58 AM 41.0781 -97.3900 266° West 429 494 45,000  Level Minneapolis Center
Tue 11:54:59 AM 41.0681 -97.5467 265° West 427 491 45,000  Level Minneapolis Center
Tue 11:56:01 AM 41.0586 -97.7039 265° West 427 491 45,000  Level Minneapolis Center
Tue 11:57:03 AM 41.0492 -97.8592 265° West 425 489 45,000  Level Minneapolis Center
Tue 11:58:05 AM 41.0406 -98.0158 266° West 426 490 45,000  Level Minneapolis Center
Tue 11:59:07 AM 41.0300 -98.1708 265° West 424 488 45,000  Level Minneapolis Center
Tue 12:00:09 PM 41.0181 -98.3572 265° West 423 487 45,000  Level Minneapolis Center
Tue 12:01:11 PM 41.0078 -98.5064 265° West 422 486 45,000  Level Minneapolis Center
Tue 12:02:13 PM 40.9972 -98.6608 265° West 422 486 45,000  Level Minneapolis Center
Tue 12:03:15 PM 40.9853 -98.8156 264° West 423 487 45,000  Level Minneapolis Center
Tue 12:04:17 PM 40.9742 -98.9717 265° West 426 490 45,000  Level Minneapolis Center
Tue 12:05:19 PM 40.9628 -99.1431 265° West 423 487 45,000  Level Minneapolis Center
Tue 12:06:21 PM 40.9514 -99.2986 265° West 423 487 45,000  Level Minneapolis Center
Tue 12:07:23 PM 40.9400 -99.4558 265° West 426 490 45,000  Level Minneapolis Center
Tue 12:08:25 PM 40.9283 -99.6125 264° West 428 493 45,000  Level Minneapolis Center
Tue 12:09:27 PM 40.9167 -99.7692 264° West 428 493 45,000  Level Minneapolis Center
Tue 12:10:29 PM 40.9017 -99.9569 264° West 429 494 45,000  Level Minneapolis Center
Tue 12:11:31 PM 40.8892 -100.1131 264° West 429 494 45,000  Level Minneapolis Center
Tue 12:12:33 PM 40.8758 -100.2700 264° West 429 494 45,000  Level Minneapolis Center
Tue 12:13:35 PM 40.8631 -100.4264 264° West 429 494 45,000  Level Minneapolis Center
Tue 12:14:37 PM 40.8497 -100.5847 264° West 430 495 45,000  Level Minneapolis Center
Tue 12:16:07 PM 40.8242 -100.8361 262° West 435 501 45,000  Level Denver Center
Tue 12:17:09 PM 40.8106 -100.9942 264° West 435 501 45,000  Level Denver Center
Tue 12:18:11 PM 40.7972 -101.1531 264° West 437 503 45,000  Level Denver Center
Tue 12:19:42 PM 40.7753 -101.3878 263° West 437 503 45,000  Level Salt Lake Center
Tue 12:20:16 PM 40.7669 -101.4697 262° West 435 501 45,000  Level Denver Center
Tue 12:21:18 PM 40.7511 -101.6283 263° West 437 503 45,000  Level Denver Center
Tue 12:22:20 PM 40.7333 -101.8192 263° West 436 502 45,000  Level Denver Center
Tue 12:23:22 PM 40.7194 -101.9656 263° West 438 504 45,000  Level Denver Center
Tue 12:24:24 PM 40.7047 -102.1233 263° West 436 502 45,000  Level Denver Center
Tue 12:25:26 PM 40.6831 -102.3144 262° West 441 507 45,000  Level Denver Center
Tue 12:26:28 PM 40.6689 -102.4736 263° West 441 507 45,000  Level Denver Center
Tue 12:27:30 PM 40.6511 -102.6317 262° West 438 504 45,000  Level Denver Center
Tue 12:28:32 PM 40.6344 -102.7906 262° West 440 506 45,000  Level Denver Center
Tue 12:29:34 PM 40.6175 -102.9500 262° West 441 507 45,000  Level Denver Center
Tue 12:30:36 PM 40.6003 -103.1089 262° West 441 507 45,000  Level Denver Center
Tue 12:31:38 PM 40.5794 -103.3008 262° West 443 510 45,000  Level Denver Center
Tue 12:32:40 PM 40.5617 -103.4606 262° West 444 511 45,000  Level Denver Center
Tue 12:33:42 PM 40.5439 -103.6169 262° West 439 505 45,000  Level Denver Center
Tue 12:34:44 PM 40.5253 -103.7758 261° West 439 505 45,000  Level Denver Center
Tue 12:35:46 PM 40.5072 -103.9331 261° West 439 505 45,000  Level Denver Center
Tue 12:36:48 PM 40.4853 -104.1253 262° West 447 514 45,000  Level Denver Center
Tue 12:37:50 PM 40.4669 -104.2825 261° West 439 505 45,000  Level Denver Center
Tue 12:38:52 PM 40.4483 -104.4428 261° West 445 512 45,000  Level Denver Center
Tue 12:39:55 PM 40.4286 -104.5992 261° West 439 505 45,000  Level Denver Center
Tue 12:40:57 PM 40.4094 -104.7600 261° West 446 513 45,000  Level Denver Center
Tue 12:41:59 PM 40.3892 -104.9178 260° West 443 510 45,000  Level Denver Center
Tue 12:43:01 PM 40.3653 -105.1078 261° West 443 510 45,000  Level Denver Center
Tue 12:44:03 PM 40.3461 -105.2633 261° West 438 504 45,000  Level Denver Center
Tue 12:45:05 PM 40.3256 -105.4186 260° West 435 501 45,000  Level Denver Center
Tue 12:46:07 PM 40.3050 -105.5719 260° West 431 496 45,000  Level Denver Center
Tue 12:47:09 PM 40.2844 -105.7286 260° West 435 501 45,000  Level Denver Center
Tue 12:48:11 PM 40.2594 -105.9167 260° West 439 505 45,000  Level Denver Center
Tue 12:49:13 PM 40.2381 -106.0739 260° West 440 506 45,000  Level Denver Center
Tue 12:50:15 PM 40.2164 -106.2314 260° West 436 502 45,000  Level Denver Center
Tue 12:51:17 PM 40.1958 -106.3850 260° West 437 503 45,000  Level Denver Center
Tue 12:52:19 PM 40.1708 -106.5547 259° West 435 501 45,000  Level Denver Center
Tue 12:53:21 PM 40.1508 -106.7058 260° West 440 506 45,000  Level Denver Center
Tue 12:54:23 PM 40.1244 -106.8811 259° West 442 509 45,000  Level Denver Center
Tue 12:55:25 PM 40.1039 -107.0322 260° West 441 507 45,000  Level Denver Center
Tue 12:56:27 PM 40.0783 -107.2078 259° West 443 510 45,000  Level Denver Center
Tue 12:57:30 PM 40.0556 -107.3578 259° West 441 507 45,000  Level Denver Center
Tue 12:58:32 PM 40.0300 -107.5328 259° West 441 507 45,000  Level Denver Center
Tue 12:59:34 PM 40.0081 -107.6803 259° West 435 501 45,000  Level Denver Center
Tue 01:00:36 PM 39.9819 -107.8508 259° West 430 495 45,000  Level Denver Center
Tue 01:01:38 PM 39.9592 -107.9972 259° West 430 495 45,000  Level Denver Center
Tue 01:02:40 PM 39.9333 -108.1697 259° West 436 502 45,000  Level Denver Center
Tue 01:03:42 PM 39.9108 -108.3164 259° West 436 502 45,000  Level Denver Center
Tue 01:04:44 PM 39.8844 -108.4850 259° West 426 490 45,000  Level Denver Center
Tue 01:05:46 PM 39.8617 -108.6317 259° West 432 497 45,000  Level Denver Center
Tue 01:06:48 PM 39.8344 -108.8033 258° West 439 505 45,000  Level Denver Center
Tue 01:07:50 PM 39.8100 -108.9494 258° West 439 505 45,000  Level Denver Center
Tue 01:08:52 PM 39.7819 -109.1211 258° West 438 504 45,000  Level Denver Center
Tue 01:09:54 PM 39.7578 -109.2678 258° West 437 503 45,000  Level Denver Center
Tue 01:10:56 PM 39.7297 -109.4372 258° West 432 497 45,000  Level Denver Center
Tue 01:11:59 PM 39.7053 -109.5822 258° West 432 497 45,000  Level Denver Center
Tue 01:13:01 PM 39.6758 -109.7506 257° West 430 495 45,000  Level Denver Center
Tue 01:14:03 PM 39.6517 -109.8950 258° West 428 493 45,000  Level Denver Center
Tue 01:15:05 PM 39.6233 -110.0653 258° West 431 496 45,000  Level Denver Center
Tue 01:16:07 PM 39.5978 -110.2100 257° West 431 496 45,000  Level Denver Center
Tue 01:17:09 PM 39.5669 -110.3792 257° West 433 498 45,000  Level Denver Center
Tue 01:18:11 PM 39.5417 -110.5256 257° West 437 503 45,000  Level Denver Center
Tue 01:19:27 PM 39.5089 -110.7194 258° West 435 501 45,000  Level Salt Lake Center
Tue 01:20:29 PM 39.4783 -110.8900 257° West 435 501 45,000  Level Salt Lake Center
Tue 01:21:31 PM 39.4511 -111.0364 257° West 438 504 45,000  Level Salt Lake Center
Tue 01:22:32 PM 39.4200 -111.2075 257° West 438 504 45,000  Level Salt Lake Center
Tue 01:23:34 PM 39.3950 -111.3508 257° West 436 502 45,000  Level Salt Lake Center
Tue 01:24:36 PM 39.3661 -111.5047 256° West 439 505 45,000  Level Salt Lake Center
Tue 01:25:38 PM 39.3356 -111.6564 255° West 438 504 45,000  Level Salt Lake Center
Tue 01:26:39 PM 39.3072 -111.8097 257° West 439 505 45,000  Level Salt Lake Center
Tue 01:27:41 PM 39.2783 -111.9625 256° West 439 505 45,000  Level Salt Lake Center
Tue 01:28:43 PM 39.2453 -112.1444 257° West 436 502 45,000  Level Salt Lake Center
Tue 01:29:45 PM 39.2183 -112.2797 256° West 435 501 45,000  Level Salt Lake Center
Tue 01:30:47 PM 39.1878 -112.4306 255° West 436 502 45,000  Level Salt Lake Center
Tue 01:31:48 PM 39.1522 -112.6108 256° West 435 501 45,000  Level Salt Lake Center
Tue 01:32:50 PM 39.1231 -112.7614 256° West 435 501 45,000  Level Salt Lake Center
Tue 01:33:52 PM 39.0922 -112.9111 255° West 435 501 45,000  Level Salt Lake Center
Tue 01:34:54 PM 39.0622 -113.0597 255° West 433 498 45,000  Level Salt Lake Center
Tue 01:35:56 PM 39.0314 -113.2078 255° West 431 496 45,000  Level Salt Lake Center
Tue 01:36:58 PM 39.0019 -113.3583 256° West 434 499 45,000  Level Salt Lake Center
Tue 01:38:00 PM 38.9653 -113.5392 255° West 437 503 45,000  Level Salt Lake Center
Tue 01:39:01 PM 38.9339 -113.6886 255° West 436 502 45,000  Level Salt Lake Center
Tue 01:40:03 PM 38.9019 -113.8378 255° West 436 502 45,000  Level Salt Lake Center
Tue 01:41:05 PM 38.8708 -113.9872 255° West 436 502 45,000  Level Salt Lake Center
Tue 01:42:07 PM 38.8397 -114.1367 255° West 436 502 45,000  Level Salt Lake Center
Tue 01:43:09 PM 38.8072 -114.2875 255° West 438 504 45,000  Level Salt Lake Center
Tue 01:44:11 PM 38.7700 -114.4658 255° West 435 501 45,000  Level Salt Lake Center
Tue 01:45:13 PM 38.7375 -114.6150 254° West 436 502 45,000  Level Salt Lake Center
Tue 01:46:15 PM 38.7053 -114.7639 255° West 435 501 45,000  Level Salt Lake Center
Tue 01:47:17 PM 38.6725 -114.9128 254° West 437 503 45,000  Level Salt Lake Center
Tue 01:48:19 PM 38.6372 -115.0647 253° West 442 509 45,000  Level Salt Lake Center
Tue 01:49:21 PM 38.6050 -115.2142 255° West 441 507 45,000  Level Salt Lake Center
Tue 01:50:22 PM 38.5656 -115.3897 254° West 442 509 45,000  Level Salt Lake Center
Tue 01:51:24 PM 38.5317 -115.5414 254° West 443 510 45,000  Level Salt Lake Center
Tue 01:52:26 PM 38.4969 -115.6922 254° West 445 512 45,000  Level Salt Lake Center
Tue 01:53:29 PM 38.4625 -115.8428 254° West 444 511 45,000  Level Salt Lake Center
Tue 01:54:30 PM 38.4278 -115.9950 254° West 446 513 45,000  Level Salt Lake Center
Tue 01:55:32 PM 38.3856 -116.1764 254° West 446 513 45,000  Level Salt Lake Center
Tue 01:56:34 PM 38.3508 -116.3281 254° West 446 513 45,000  Level Salt Lake Center
Tue 01:57:16 PM 38.3278 -116.4181 254° West 447 514 45,000  Level Oakland Center
Tue 01:58:00 PM 38.3025 -116.5247 253° West  Level FlightAware Approximate
Tue 01:58:18 PM 38.2928 -116.5700 254° West 448 516 45,000  Level Oakland Center
Tue 01:59:19 PM 38.2494 -116.7519 253° West 449 517 45,000  Level Oakland Center
Tue 02:00:20 PM 38.2139 -116.9042 253° West 450 518 45,000  Level Oakland Center
Tue 02:01:22 PM 38.1783 -117.0556 253° West 449 517 45,000  Level Oakland Center
Tue 02:02:23 PM 38.1389 -117.2108 252° West 453 521 45,000  Level Oakland Center
Tue 02:03:25 PM 38.1033 -117.3639 254° West 452 520 45,000  Level Oakland Center
Tue 02:04:26 PM 38.0631 -117.5264 253° West 447 514 45,000  Level Oakland Center
Tue 02:05:00 PM 38.0665 -117.4828 254° West  Level FlightAware Approximate
Tue 02:05:28 PM 38.0258 -117.6769 253° West 448 516 45,000  Level Oakland Center
Tue 02:06:29 PM 37.9958 -117.8311 256° West 449 517 45,000  Level Oakland Center
Tue 02:07:30 PM 37.9803 -117.9872 263° West 447 514 45,000 -293 Level Oakland Center
Tue 02:08:32 PM 37.9636 -118.1447 262° West 451 519 44,400 -1,024 Descending Oakland Center
Tue 02:09:33 PM 37.9464 -118.3028 262° West 452 520 42,900 -1,463 Descending Oakland Center
Tue 02:10:35 PM 37.9289 -118.4633 262° West 458 527 41,400 -1,415 Descending Oakland Center
Tue 02:11:36 PM 37.9114 -118.6244 262° West 463 533 40,000 -683 Descending Oakland Center
Tue 02:12:38 PM 37.8922 -118.7844 261° West 461 531 40,000  Level Oakland Center
Tue 02:13:40 PM 37.8714 -118.9792 259° West 465 535 40,000  Level Oakland Center
Tue 02:14:41 PM 37.8539 -119.1281 262° West 474 545 40,000  Level Oakland Center
Tue 02:15:00 PM 37.8474 -119.1175 265° West  Level FlightAware Approximate
Tue 02:15:43 PM 37.8342 -119.2911 261° West 472 543 40,000  Level Oakland Center
Tue 02:16:44 PM 37.8153 -119.4547 262° West 470 541 40,000  Level Oakland Center
Tue 02:17:46 PM 37.7969 -119.6153 262° West 463 533 40,000 -537 Level Oakland Center
Tue 02:18:47 PM 37.7725 -119.8075 261° West 461 531 38,900 -1,756 Descending Oakland Center
Tue 02:19:49 PM 37.7536 -119.9683 262° West 462 532 36,400 -2,439 Descending Oakland Center
Tue 02:20:50 PM 37.7331 -120.1311 261° West 467 537 33,900 -2,459 Descending Oakland Center
Tue 02:21:51 PM 37.7131 -120.2931 261° West 467 537 31,400 -2,439 Descending Oakland Center
Tue 02:22:00 PM 37.7244 -120.1005 259° West  Level FlightAware Approximate
Tue 02:22:53 PM 37.6917 -120.4583 261° West 474 545 28,900  Level Oakland Center
Tue 02:23:54 PM 37.6722 -120.6164 261° West 461 531 26,500 -2,293 Descending Oakland Center
Tue 02:24:56 PM 37.6528 -120.7628 261° West 428 493 24,200 -2,195 Descending Oakland Center
Tue 02:25:57 PM 37.6333 -120.9075 260° West 420 483 22,000 -2,376 Descending Oakland Center
Tue 02:26:37 PM 37.6167 -121.0333 261° West 423 487 20,200 -2,400 Descending Northern Cal TRACON
Tue 02:27:37 PM 37.6000 -121.1667 261° West 410 472 18,000 -2,050 Descending Northern Cal TRACON
Tue 02:28:37 PM 37.5833 -121.2833 260° West 392 451 16,100 -1,895 Descending Northern Cal TRACON
Tue 02:29:31 PM 37.5833 -121.4000 270° West 351 404 14,400 -1,789 Descending Northern Cal TRACON
Tue 02:30:31 PM 37.5667 -121.5167 260° West 319 367 12,700 -1,650 Descending Northern Cal TRACON
Tue 02:31:31 PM 37.5500 -121.6167 258° West 306 352 11,100 -950 Descending Northern Cal TRACON
Tue 02:32:31 PM 37.5833 -121.7000 297° West 263 303 10,800 -421 Descending Northern Cal TRACON
Tue 02:33:25 PM 37.6167 -121.7667 302° West 256 295 10,300 -421 Descending Northern Cal TRACON
Tue 02:34:25 PM 37.6500 -121.8500 297° West 255 293 10,000 -150 Descending Northern Cal TRACON
Tue 02:35:25 PM 37.6167 -121.9167 238° Southwest 255 293 10,000 -200 Level Northern Cal TRACON
Tue 02:36:25 PM 37.5667 -121.8833 152° Southeast 232 267 9,600 -650 Descending Northern Cal TRACON
Tue 02:37:25 PM 37.5000 -121.8667 169° South 248 285 8,700 -800 Descending Northern Cal TRACON
Tue 02:38:25 PM 37.4500 -121.8833 195° South 216 249 8,000 -700 Descending Northern Cal TRACON
Tue 02:39:25 PM 37.4500 -121.9500 270° West 206 237 7,300 -1,000 Descending Northern Cal TRACON
Tue 02:40:19 PM 37.4667 -122.0167 288° West 215 247 6,100 -1,263 Descending Northern Cal TRACON
Tue 02:41:19 PM 37.5000 -122.0667 310° West 213 245 4,900 -1,150 Descending Northern Cal TRACON
Tue 02:42:19 PM 37.5167 -122.1333 288° West 202 232 3,800 -1,050 Descending Northern Cal TRACON
Tue 02:43:19 PM 37.5500 -122.2000 302° West 200 230 2,800 -960 Descending Northern Cal TRACON
Tue 02:44:24 PM 37.5706 -122.2572 294° West 198 228 1,800 -905 Descending Oakland Center
Tue 02:45:25 PM 37.5925 -122.3094 298° West 183 211 900 -738 Descending Oakland Center
Tue 02:46:26 PM 37.6083 -122.3464 298° West 143 165 300 -590 Descending Oakland Center

Login

Don't have an account? Register now (free) for customized features, flight alerts, and more!